La Farge, WI (54639)

6:50 AM CDT on September 19, 2014 (GMT -0500)
Viroqua | Change Station
CLOSE
Current Station
Airport
Location: Viroqua,
Elevation: 1293 ft
Nearby Weather Stations

Elev 1293 ft 43.58 °N, 90.90 °W | Updated 15 minutes ago

Clear
Clear
50 °F
Feels Like 50 °F
N
7
Wind Variable Wind from SSE

Today
High -- | Low -- °F
--% Chance of Precip.
Yesterday
High -- | Low -- °F
Precip. -- in
6:46 AM 7:05 PM
Waning Crescent, 19% visible
Pressure 30.08 in
Visibility 4.0 miles
Clouds Clear
Dew Point 50 °F
Humidity 100%
Rainfall 0.00 in
Snow Depth Not available.
UV 0 out of 12
Pollen 5.00 out of 12
Air Quality Not available.
Flu Activity Not available.
METAR KY51 191135Z AUTO 16006KT 4SM CLR 10/10 A3008 RMK AO1 T01020102

More Conditions Fewer Conditions

Pressure 30.08 in
Visibility 4.0 miles
Clouds Clear
Dew Point 50 °F
Humidity 100%
Rainfall 0.00 in
Snow Depth Not available.
UV 0 out of 12
Pollen 5.00 out of 12
Air Quality Not available.
Flu Activity Not available.
METAR KY51 191135Z AUTO 16006KT 4SM CLR 10/10 A3008 RMK AO1 T01020102

More Conditions Fewer Conditions

10-Day Weather Forecast

Almanac

Astronomy

Sep. 19, 2014 Rise Set
Actual Time 6:46 AM CDT 7:05 PM CDT
Civil Twilight 6:17 AM CDT 7:34 PM CDT
Nautical Twilight 5:43 AM CDT 8:07 PM CDT
Astronomical Twilight 5:09 AM CDT 8:42 PM CDT
Moon 2:25 AM CDT 4:39 PM CDT
Length of Visible Light 13h 16m
Length of Day
12h 18m
Tomorrow will be 2m 58s shorter.
Waning Crescent, 19% of the Moon is Illuminated
Today
Waning Crescent
Sep 24
New
Oct 1
First Quarter
Oct 8
Full
Oct 15
Last Quarter

Today's Extremes

State Highs State Lows

Community

WunderPhotos

Upload Photos

1,754,597 photos uploaded!

Nearby

Snow Depth

Station Depth Elevation
No new snow has been reported.

Earthquake Activity

City Distance Mag. Time & Date
No recent earthquake activity has been reported nearby.
Minimum magnitude displayed is 2.5.

Coastal Water Temperatures

Place Temperature
No Stations Reporting

Nearby Weather Stations